sensor_id;sensor_type;location;lat;lon;timestamp;P1;durP1;ratioP1;P2;durP2;ratioP2
17564;SDS011;62994;52.126;5.596;2023-04-01T00:01:49;7.07;;;6.55;;
17564;SDS011;62994;52.126;5.596;2023-04-01T00:04:19;7.97;;;7.40;;
17564;SDS011;62994;52.126;5.596;2023-04-01T00:06:47;8.15;;;7.40;;
17564;SDS011;62994;52.126;5.596;2023-04-01T00:09:16;7.15;;;6.75;;
17564;SDS011;62994;52.126;5.596;2023-04-01T00:11:44;7.93;;;7.28;;
17564;SDS011;62994;52.126;5.596;2023-04-01T00:14:13;8.80;;;8.02;;
17564;SDS011;62994;52.126;5.596;2023-04-01T00:16:44;8.15;;;7.55;;
17564;SDS011;62994;52.126;5.596;2023-04-01T00:19:13;8.57;;;7.85;;
17564;SDS011;62994;52.126;5.596;2023-04-01T00:21:45;8.73;;;8.02;;
17564;SDS011;62994;52.126;5.596;2023-04-01T00:24:17;8.32;;;7.78;;
17564;SDS011;62994;52.126;5.596;2023-04-01T00:26:45;10.55;;;8.13;;
17564;SDS011;62994;52.126;5.596;2023-04-01T00:29:20;10.10;;;8.45;;
17564;SDS011;62994;52.126;5.596;2023-04-01T00:31:51;10.15;;;9.23;;
17564;SDS011;62994;52.126;5.596;2023-04-01T00:34:24;11.02;;;9.02;;
17564;SDS011;62994;52.126;5.596;2023-04-01T00:36:54;9.25;;;8.30;;
17564;SDS011;62994;52.126;5.596;2023-04-01T00:39:22;10.93;;;9.40;;
17564;SDS011;62994;52.126;5.596;2023-04-01T00:41:50;12.45;;;9.85;;
17564;SDS011;62994;52.126;5.596;2023-04-01T00:44:18;10.60;;;9.30;;
17564;SDS011;62994;52.126;5.596;2023-04-01T00:46:47;12.20;;;8.93;;
17564;SDS011;62994;52.126;5.596;2023-04-01T00:49:17;10.27;;;8.95;;
17564;SDS011;62994;52.126;5.596;2023-04-01T00:51:48;11.40;;;9.45;;
17564;SDS011;62994;52.126;5.596;2023-04-01T00:54:20;13.95;;;9.90;;
17564;SDS011;62994;52.126;5.596;2023-04-01T00:56:51;19.48;;;11.20;;
17564;SDS011;62994;52.126;5.596;2023-04-01T00:59:25;17.80;;;10.82;;
17564;SDS011;62994;52.126;5.596;2023-04-01T01:01:54;13.27;;;11.73;;
17564;SDS011;62994;52.126;5.596;2023-04-01T01:04:25;24.65;;;11.93;;
17564;SDS011;62994;52.126;5.596;2023-04-01T01:06:56;24.58;;;13.05;;
17564;SDS011;62994;52.126;5.596;2023-04-01T01:09:37;18.48;;;12.63;;
17564;SDS011;62994;52.126;5.596;2023-04-01T01:12:13;19.15;;;12.77;;
17564;SDS011;62994;52.126;5.596;2023-04-01T01:14:54;23.55;;;13.13;;
17564;SDS011;62994;52.126;5.596;2023-04-01T01:17:33;18.73;;;12.30;;
17564;SDS011;62994;52.126;5.596;2023-04-01T01:23:23;19.30;;;13.27;;
17564;SDS011;62994;52.126;5.596;2023-04-01T01:26:12;17.23;;;11.85;;
17564;SDS011;62994;52.126;5.596;2023-04-01T01:29:05;21.85;;;13.07;;
17564;SDS011;62994;52.126;5.596;2023-04-01T01:31:47;18.17;;;12.88;;
17564;SDS011;62994;52.126;5.596;2023-04-01T01:34:22;25.65;;;13.32;;
17564;SDS011;62994;52.126;5.596;2023-04-01T01:37:05;21.27;;;13.00;;
17564;SDS011;62994;52.126;5.596;2023-04-01T01:39:35;23.58;;;13.50;;
17564;SDS011;62994;52.126;5.596;2023-04-01T01:42:04;21.58;;;13.75;;
17564;SDS011;62994;52.126;5.596;2023-04-01T01:44:36;23.52;;;13.05;;
17564;SDS011;62994;52.126;5.596;2023-04-01T01:47:07;20.77;;;12.90;;
17564;SDS011;62994;52.126;5.596;2023-04-01T01:49:43;21.45;;;12.60;;
17564;SDS011;62994;52.126;5.596;2023-04-01T01:52:13;24.52;;;15.00;;
17564;SDS011;62994;52.126;5.596;2023-04-01T01:54:46;21.85;;;11.18;;
17564;SDS011;62994;52.126;5.596;2023-04-01T01:57:14;14.98;;;11.20;;
17564;SDS011;62994;52.126;5.596;2023-04-01T01:59:46;17.83;;;10.05;;
17564;SDS011;62994;52.126;5.596;2023-04-01T02:05:29;14.57;;;10.05;;
17564;SDS011;62994;52.126;5.596;2023-04-01T02:11:41;10.07;;;9.07;;
17564;SDS011;62994;52.126;5.596;2023-04-01T02:14:20;14.43;;;10.15;;
17564;SDS011;62994;52.126;5.596;2023-04-01T02:16:51;14.23;;;8.90;;
17564;SDS011;62994;52.126;5.596;2023-04-01T02:19:22;19.02;;;9.18;;
17564;SDS011;62994;52.126;5.596;2023-04-01T02:21:55;14.43;;;9.52;;
17564;SDS011;62994;52.126;5.596;2023-04-01T02:24:26;13.68;;;9.85;;
17564;SDS011;62994;52.126;5.596;2023-04-01T02:26:57;12.55;;;10.07;;
17564;SDS011;62994;52.126;5.596;2023-04-01T02:29:25;11.57;;;9.63;;
17564;SDS011;62994;52.126;5.596;2023-04-01T02:31:56;9.95;;;9.05;;
17564;SDS011;62994;52.126;5.596;2023-04-01T02:34:24;10.18;;;9.30;;
17564;SDS011;62994;52.126;5.596;2023-04-01T02:36:57;8.85;;;8.15;;
17564;SDS011;62994;52.126;5.596;2023-04-01T02:39:25;13.70;;;9.95;;
17564;SDS011;62994;52.126;5.596;2023-04-01T02:41:54;9.95;;;8.90;;
17564;SDS011;62994;52.126;5.596;2023-04-01T02:44:28;12.38;;;9.02;;
17564;SDS011;62994;52.126;5.596;2023-04-01T02:46:55;11.85;;;8.70;;
17564;SDS011;62994;52.126;5.596;2023-04-01T02:49:23;9.88;;;8.50;;
17564;SDS011;62994;52.126;5.596;2023-04-01T02:51:52;10.40;;;8.15;;
17564;SDS011;62994;52.126;5.596;2023-04-01T02:54:22;7.55;;;6.68;;
17564;SDS011;62994;52.126;5.596;2023-04-01T02:56:50;10.02;;;6.57;;
17564;SDS011;62994;52.126;5.596;2023-04-01T02:59:19;7.45;;;6.72;;
17564;SDS011;62994;52.126;5.596;2023-04-01T03:01:48;7.50;;;6.90;;
17564;SDS011;62994;52.126;5.596;2023-04-01T03:04:15;6.95;;;6.45;;
17564;SDS011;62994;52.126;5.596;2023-04-01T03:06:44;7.63;;;6.95;;
17564;SDS011;62994;52.126;5.596;2023-04-01T03:09:12;7.88;;;7.20;;
17564;SDS011;62994;52.126;5.596;2023-04-01T03:11:41;8.48;;;7.68;;
17564;SDS011;62994;52.126;5.596;2023-04-01T03:14:52;7.65;;;6.95;;
17564;SDS011;62994;52.126;5.596;2023-04-01T03:21:41;7.40;;;6.75;;
17564;SDS011;62994;52.126;5.596;2023-04-01T03:24:54;7.53;;;6.93;;
17564;SDS011;62994;52.126;5.596;2023-04-01T03:28:40;7.90;;;6.80;;
17564;SDS011;62994;52.126;5.596;2023-04-01T03:34:37;6.55;;;5.95;;
17564;SDS011;62994;52.126;5.596;2023-04-01T03:38:42;6.43;;;5.93;;
17564;SDS011;62994;52.126;5.596;2023-04-01T03:40:51;6.45;;;6.03;;
17564;SDS011;62994;52.126;5.596;2023-04-01T03:43:38;6.10;;;5.70;;
17564;SDS011;62994;52.126;5.596;2023-04-01T03:46:16;6.47;;;5.93;;
17564;SDS011;62994;52.126;5.596;2023-04-01T03:49:05;6.88;;;6.38;;
17564;SDS011;62994;52.126;5.596;2023-04-01T03:54:45;7.13;;;6.60;;
17564;SDS011;62994;52.126;5.596;2023-04-01T03:57:14;7.25;;;6.63;;
17564;SDS011;62994;52.126;5.596;2023-04-01T03:59:50;6.35;;;5.88;;
17564;SDS011;62994;52.126;5.596;2023-04-01T04:02:36;6.72;;;6.28;;
17564;SDS011;62994;52.126;5.596;2023-04-01T04:05:10;6.15;;;5.75;;
17564;SDS011;62994;52.126;5.596;2023-04-01T04:07:40;6.85;;;5.93;;
17564;SDS011;62994;52.126;5.596;2023-04-01T04:10:13;6.15;;;5.75;;
17564;SDS011;62994;52.126;5.596;2023-04-01T04:12:50;6.57;;;6.07;;
17564;SDS011;62994;52.126;5.596;2023-04-01T04:15:20;6.43;;;6.03;;
17564;SDS011;62994;52.126;5.596;2023-04-01T04:17:49;6.85;;;6.35;;
17564;SDS011;62994;52.126;5.596;2023-04-01T04:20:22;6.07;;;5.70;;
17564;SDS011;62994;52.126;5.596;2023-04-01T04:22:49;6.63;;;6.15;;
17564;SDS011;62994;52.126;5.596;2023-04-01T04:25:22;6.10;;;5.60;;
17564;SDS011;62994;52.126;5.596;2023-04-01T04:27:52;6.68;;;6.28;;
17564;SDS011;62994;52.126;5.596;2023-04-01T04:30:21;5.95;;;5.60;;
17564;SDS011;62994;52.126;5.596;2023-04-01T04:32:51;7.85;;;7.15;;
17564;SDS011;62994;52.126;5.596;2023-04-01T04:35:22;7.88;;;7.28;;
17564;SDS011;62994;52.126;5.596;2023-04-01T04:37:52;7.45;;;6.70;;
17564;SDS011;62994;52.126;5.596;2023-04-01T04:40:20;7.72;;;7.22;;
17564;SDS011;62994;52.126;5.596;2023-04-01T04:42:48;9.82;;;8.88;;
17564;SDS011;62994;52.126;5.596;2023-04-01T04:45:15;10.50;;;9.55;;
17564;SDS011;62994;52.126;5.596;2023-04-01T04:47:42;10.27;;;9.40;;
17564;SDS011;62994;52.126;5.596;2023-04-01T04:50:20;11.15;;;10.00;;
17564;SDS011;62994;52.126;5.596;2023-04-01T04:54:00;11.75;;;9.27;;
17564;SDS011;62994;52.126;5.596;2023-04-01T04:56:28;11.20;;;9.77;;
17564;SDS011;62994;52.126;5.596;2023-04-01T05:03:05;10.60;;;9.68;;
17564;SDS011;62994;52.126;5.596;2023-04-01T05:05:49;10.45;;;9.38;;
17564;SDS011;62994;52.126;5.596;2023-04-01T05:08:22;11.07;;;9.77;;
17564;SDS011;62994;52.126;5.596;2023-04-01T05:10:51;11.70;;;10.13;;
17564;SDS011;62994;52.126;5.596;2023-04-01T05:13:47;11.70;;;10.32;;
17564;SDS011;62994;52.126;5.596;2023-04-01T05:16:27;19.73;;;11.73;;
17564;SDS011;62994;52.126;5.596;2023-04-01T05:19:11;17.23;;;10.63;;
17564;SDS011;62994;52.126;5.596;2023-04-01T05:21:57;12.48;;;10.00;;
17564;SDS011;62994;52.126;5.596;2023-04-01T05:24:26;16.33;;;10.52;;
17564;SDS011;62994;52.126;5.596;2023-04-01T05:27:07;12.80;;;10.10;;
17564;SDS011;62994;52.126;5.596;2023-04-01T05:29:37;12.98;;;9.43;;
17564;SDS011;62994;52.126;5.596;2023-04-01T05:32:04;9.73;;;8.77;;
17564;SDS011;62994;52.126;5.596;2023-04-01T05:34:32;11.63;;;9.25;;
17564;SDS011;62994;52.126;5.596;2023-04-01T05:37:01;13.63;;;8.75;;
17564;SDS011;62994;52.126;5.596;2023-04-01T05:39:35;9.60;;;8.48;;
17564;SDS011;62994;52.126;5.596;2023-04-01T05:42:08;8.65;;;7.85;;
17564;SDS011;62994;52.126;5.596;2023-04-01T05:44:36;7.90;;;7.20;;
17564;SDS011;62994;52.126;5.596;2023-04-01T05:47:04;8.20;;;7.43;;
17564;SDS011;62994;52.126;5.596;2023-04-01T05:49:32;8.40;;;7.60;;
17564;SDS011;62994;52.126;5.596;2023-04-01T05:52:00;7.88;;;7.20;;
17564;SDS011;62994;52.126;5.596;2023-04-01T05:54:37;7.45;;;6.85;;
17564;SDS011;62994;52.126;5.596;2023-04-01T05:57:04;6.88;;;6.32;;
17564;SDS011;62994;52.126;5.596;2023-04-01T05:59:31;6.65;;;6.15;;
17564;SDS011;62994;52.126;5.596;2023-04-01T06:02:04;6.28;;;5.72;;
17564;SDS011;62994;52.126;5.596;2023-04-01T06:04:32;6.40;;;5.88;;
17564;SDS011;62994;52.126;5.596;2023-04-01T06:07:05;6.20;;;5.38;;
17564;SDS011;62994;52.126;5.596;2023-04-01T06:09:40;5.57;;;5.18;;
17564;SDS011;62994;52.126;5.596;2023-04-01T06:12:17;4.53;;;4.22;;
17564;SDS011;62994;52.126;5.596;2023-04-01T06:14:57;4.32;;;4.03;;
17564;SDS011;62994;52.126;5.596;2023-04-01T06:17:46;3.97;;;3.78;;
17564;SDS011;62994;52.126;5.596;2023-04-01T06:20:32;3.20;;;3.00;;
17564;SDS011;62994;52.126;5.596;2023-04-01T06:23:09;3.95;;;3.75;;
17564;SDS011;62994;52.126;5.596;2023-04-01T06:26:11;3.70;;;3.50;;
17564;SDS011;62994;52.126;5.596;2023-04-01T06:32:00;3.78;;;3.58;;
17564;SDS011;62994;52.126;5.596;2023-04-01T06:34:58;4.03;;;3.78;;
17564;SDS011;62994;52.126;5.596;2023-04-01T06:40:45;3.55;;;3.35;;
17564;SDS011;62994;52.126;5.596;2023-04-01T06:43:37;3.88;;;3.60;;
17564;SDS011;62994;52.126;5.596;2023-04-01T06:46:29;3.40;;;3.25;;
17564;SDS011;62994;52.126;5.596;2023-04-01T06:49:11;3.58;;;3.38;;
17564;SDS011;62994;52.126;5.596;2023-04-01T06:51:57;3.63;;;3.42;;
17564;SDS011;62994;52.126;5.596;2023-04-01T06:54:40;3.78;;;3.58;;
17564;SDS011;62994;52.126;5.596;2023-04-01T06:57:14;3.55;;;3.35;;
17564;SDS011;62994;52.126;5.596;2023-04-01T06:59:49;3.63;;;3.33;;
17564;SDS011;62994;52.126;5.596;2023-04-01T07:02:32;3.20;;;3.00;;
17564;SDS011;62994;52.126;5.596;2023-04-01T07:05:05;3.10;;;2.90;;
17564;SDS011;62994;52.126;5.596;2023-04-01T07:07:39;3.17;;;2.97;;
17564;SDS011;62994;52.126;5.596;2023-04-01T07:10:14;2.80;;;2.60;;
17564;SDS011;62994;52.126;5.596;2023-04-01T07:12:47;2.53;;;2.42;;
17564;SDS011;62994;52.126;5.596;2023-04-01T07:15:21;3.22;;;2.50;;
17564;SDS011;62994;52.126;5.596;2023-04-01T07:17:53;2.58;;;2.47;;
17564;SDS011;62994;52.126;5.596;2023-04-01T07:20:39;2.25;;;2.00;;
17564;SDS011;62994;52.126;5.596;2023-04-01T07:23:10;1.90;;;1.80;;
17564;SDS011;62994;52.126;5.596;2023-04-01T07:25:52;1.33;;;1.33;;
17564;SDS011;62994;52.126;5.596;2023-04-01T07:28:26;1.23;;;1.23;;
17564;SDS011;62994;52.126;5.596;2023-04-01T07:31:00;1.70;;;1.60;;
17564;SDS011;62994;52.126;5.596;2023-04-01T07:33:38;1.40;;;1.30;;
17564;SDS011;62994;52.126;5.596;2023-04-01T07:36:14;1.92;;;1.83;;
17564;SDS011;62994;52.126;5.596;2023-04-01T07:38:56;1.40;;;1.40;;
17564;SDS011;62994;52.126;5.596;2023-04-01T07:41:37;1.90;;;1.80;;
17564;SDS011;62994;52.126;5.596;2023-04-01T07:44:13;1.92;;;1.83;;
17564;SDS011;62994;52.126;5.596;2023-04-01T07:46:56;2.00;;;1.90;;
17564;SDS011;62994;52.126;5.596;2023-04-01T07:49:53;1.90;;;1.80;;
17564;SDS011;62994;52.126;5.596;2023-04-01T07:52:30;1.98;;;1.88;;
17564;SDS011;62994;52.126;5.596;2023-04-01T07:55:10;1.85;;;1.75;;
17564;SDS011;62994;52.126;5.596;2023-04-01T07:57:49;1.90;;;1.80;;
17564;SDS011;62994;52.126;5.596;2023-04-01T08:00:33;2.10;;;2.00;;
17564;SDS011;62994;52.126;5.596;2023-04-01T08:03:16;2.60;;;2.50;;
17564;SDS011;62994;52.126;5.596;2023-04-01T08:06:00;2.78;;;2.13;;
17564;SDS011;62994;52.126;5.596;2023-04-01T08:08:41;2.63;;;2.42;;
17564;SDS011;62994;52.126;5.596;2023-04-01T08:11:24;4.93;;;2.50;;
17564;SDS011;62994;52.126;5.596;2023-04-01T08:14:05;2.20;;;2.00;;
17564;SDS011;62994;52.126;5.596;2023-04-01T08:16:45;2.05;;;1.95;;
17564;SDS011;62994;52.126;5.596;2023-04-01T08:19:22;2.00;;;1.90;;
17564;SDS011;62994;52.126;5.596;2023-04-01T08:22:08;2.45;;;2.05;;
17564;SDS011;62994;52.126;5.596;2023-04-01T08:24:47;2.05;;;1.95;;
17564;SDS011;62994;52.126;5.596;2023-04-01T08:27:17;2.20;;;2.10;;
17564;SDS011;62994;52.126;5.596;2023-04-01T08:30:02;1.92;;;1.83;;
17564;SDS011;62994;52.126;5.596;2023-04-01T08:32:50;1.98;;;1.88;;
17564;SDS011;62994;52.126;5.596;2023-04-01T08:35:26;2.10;;;2.00;;
17564;SDS011;62994;52.126;5.596;2023-04-01T08:37:59;2.30;;;2.20;;
17564;SDS011;62994;52.126;5.596;2023-04-01T08:40:37;2.58;;;2.47;;
17564;SDS011;62994;52.126;5.596;2023-04-01T08:49:48;3.92;;;3.63;;
17564;SDS011;62994;52.126;5.596;2023-04-01T08:52:51;4.65;;;4.43;;
17564;SDS011;62994;52.126;5.596;2023-04-01T08:55:35;4.32;;;4.13;;
17564;SDS011;62994;52.126;5.596;2023-04-01T09:01:31;3.70;;;3.50;;
17564;SDS011;62994;52.126;5.596;2023-04-01T09:04:33;4.05;;;3.80;;
17564;SDS011;62994;52.126;5.596;2023-04-01T09:07:24;3.85;;;3.65;;
17564;SDS011;62994;52.126;5.596;2023-04-01T09:10:21;4.93;;;3.70;;
17564;SDS011;62994;52.126;5.596;2023-04-01T09:12:59;3.65;;;3.45;;
17564;SDS011;62994;52.126;5.596;2023-04-01T09:15:59;4.43;;;4.13;;
17564;SDS011;62994;52.126;5.596;2023-04-01T09:18:44;6.50;;;6.20;;
17564;SDS011;62994;52.126;5.596;2023-04-01T09:24:41;5.13;;;4.82;;
17564;SDS011;62994;52.126;5.596;2023-04-01T09:27:26;5.28;;;4.97;;
17564;SDS011;62994;52.126;5.596;2023-04-01T09:30:06;5.72;;;5.35;;
17564;SDS011;62994;52.126;5.596;2023-04-01T09:36:26;5.50;;;5.20;;
17564;SDS011;62994;52.126;5.596;2023-04-01T09:39:18;6.00;;;5.70;;
17564;SDS011;62994;52.126;5.596;2023-04-01T09:42:15;6.05;;;5.75;;
17564;SDS011;62994;52.126;5.596;2023-04-01T09:44:57;5.70;;;5.40;;
17564;SDS011;62994;52.126;5.596;2023-04-01T09:47:33;5.75;;;5.45;;
17564;SDS011;62994;52.126;5.596;2023-04-01T09:50:25;6.10;;;5.70;;
17564;SDS011;62994;52.126;5.596;2023-04-01T09:53:07;6.05;;;5.75;;
17564;SDS011;62994;52.126;5.596;2023-04-01T09:56:00;5.90;;;5.60;;
17564;SDS011;62994;52.126;5.596;2023-04-01T09:59:01;6.25;;;5.85;;
17564;SDS011;62994;52.126;5.596;2023-04-01T10:05:09;6.18;;;5.80;;
17564;SDS011;62994;52.126;5.596;2023-04-01T10:08:12;6.03;;;5.63;;
17564;SDS011;62994;52.126;5.596;2023-04-01T10:14:01;8.57;;;5.60;;
17564;SDS011;62994;52.126;5.596;2023-04-01T10:17:09;4.93;;;4.68;;
17564;SDS011;62994;52.126;5.596;2023-04-01T10:26:32;4.43;;;4.22;;
17564;SDS011;62994;52.126;5.596;2023-04-01T10:29:23;3.92;;;3.72;;
17564;SDS011;62994;52.126;5.596;2023-04-01T10:32:14;3.38;;;3.28;;
17564;SDS011;62994;52.126;5.596;2023-04-01T10:35:14;3.47;;;3.28;;
17564;SDS011;62994;52.126;5.596;2023-04-01T10:41:01;3.60;;;3.40;;
17564;SDS011;62994;52.126;5.596;2023-04-01T10:47:07;3.33;;;3.22;;
17564;SDS011;62994;52.126;5.596;2023-04-01T10:53:23;3.80;;;3.60;;
17564;SDS011;62994;52.126;5.596;2023-04-01T10:59:33;4.15;;;3.95;;
17564;SDS011;62994;52.126;5.596;2023-04-01T11:02:30;3.60;;;3.40;;
17564;SDS011;62994;52.126;5.596;2023-04-01T11:05:36;3.53;;;3.33;;
17564;SDS011;62994;52.126;5.596;2023-04-01T11:17:44;2.60;;;2.33;;
17564;SDS011;62994;52.126;5.596;2023-04-01T11:20:45;1.95;;;1.85;;
17564;SDS011;62994;52.126;5.596;2023-04-01T11:23:50;1.95;;;1.85;;
17564;SDS011;62994;52.126;5.596;2023-04-01T11:26:30;2.00;;;1.90;;
17564;SDS011;62994;52.126;5.596;2023-04-01T11:32:13;1.98;;;1.88;;
17564;SDS011;62994;52.126;5.596;2023-04-01T11:35:12;2.40;;;2.20;;
17564;SDS011;62994;52.126;5.596;2023-04-01T11:37:54;2.40;;;2.30;;
17564;SDS011;62994;52.126;5.596;2023-04-01T11:40:33;2.60;;;2.50;;
17564;SDS011;62994;52.126;5.596;2023-04-01T11:43:11;2.38;;;2.28;;
17564;SDS011;62994;52.126;5.596;2023-04-01T11:45:50;2.42;;;2.22;;
17564;SDS011;62994;52.126;5.596;2023-04-01T11:48:27;2.10;;;2.00;;
17564;SDS011;62994;52.126;5.596;2023-04-01T11:51:09;2.40;;;2.30;;
17564;SDS011;62994;52.126;5.596;2023-04-01T11:53:58;2.90;;;2.80;;
17564;SDS011;62994;52.126;5.596;2023-04-01T11:56:38;2.08;;;1.98;;
17564;SDS011;62994;52.126;5.596;2023-04-01T11:59:31;2.30;;;2.20;;
17564;SDS011;62994;52.126;5.596;2023-04-01T12:02:25;2.20;;;2.10;;
17564;SDS011;62994;52.126;5.596;2023-04-01T12:08:12;2.58;;;2.47;;
17564;SDS011;62994;52.126;5.596;2023-04-01T12:10:50;2.92;;;2.83;;
17564;SDS011;62994;52.126;5.596;2023-04-01T12:13:27;2.80;;;2.70;;
17564;SDS011;62994;52.126;5.596;2023-04-01T12:16:08;2.50;;;2.40;;
17564;SDS011;62994;52.126;5.596;2023-04-01T12:18:47;3.10;;;2.97;;
17564;SDS011;62994;52.126;5.596;2023-04-01T12:21:22;3.05;;;2.80;;
17564;SDS011;62994;52.126;5.596;2023-04-01T12:24:21;2.90;;;2.80;;
17564;SDS011;62994;52.126;5.596;2023-04-01T12:27:11;3.33;;;3.05;;
17564;SDS011;62994;52.126;5.596;2023-04-01T12:30:09;3.50;;;3.30;;
17564;SDS011;62994;52.126;5.596;2023-04-01T12:33:02;3.30;;;3.20;;
17564;SDS011;62994;52.126;5.596;2023-04-01T12:35:53;3.30;;;3.20;;
17564;SDS011;62994;52.126;5.596;2023-04-01T12:38:30;2.70;;;2.60;;
17564;SDS011;62994;52.126;5.596;2023-04-01T12:41:11;2.80;;;2.70;;
17564;SDS011;62994;52.126;5.596;2023-04-01T12:46:52;3.58;;;3.38;;
17564;SDS011;62994;52.126;5.596;2023-04-01T12:49:47;3.25;;;3.15;;
17564;SDS011;62994;52.126;5.596;2023-04-01T12:52:39;3.15;;;3.05;;
17564;SDS011;62994;52.126;5.596;2023-04-01T12:58:31;2.90;;;2.80;;
17564;SDS011;62994;52.126;5.596;2023-04-01T13:04:39;3.63;;;3.42;;
17564;SDS011;62994;52.126;5.596;2023-04-01T13:07:23;3.53;;;3.33;;
17564;SDS011;62994;52.126;5.596;2023-04-01T13:10:07;3.65;;;3.45;;
17564;SDS011;62994;52.126;5.596;2023-04-01T13:12:52;4.60;;;3.50;;
17564;SDS011;62994;52.126;5.596;2023-04-01T13:15:32;4.70;;;3.15;;
17564;SDS011;62994;52.126;5.596;2023-04-01T13:18:20;3.00;;;2.90;;
17564;SDS011;62994;52.126;5.596;2023-04-01T13:20:57;3.15;;;3.05;;
17564;SDS011;62994;52.126;5.596;2023-04-01T13:26:30;3.15;;;2.95;;
17564;SDS011;62994;52.126;5.596;2023-04-01T13:29:06;3.17;;;3.00;;
17564;SDS011;62994;52.126;5.596;2023-04-01T13:31:47;2.75;;;2.65;;
17564;SDS011;62994;52.126;5.596;2023-04-01T13:34:25;2.70;;;2.60;;
17564;SDS011;62994;52.126;5.596;2023-04-01T13:37:05;2.60;;;2.50;;
17564;SDS011;62994;52.126;5.596;2023-04-01T13:42:57;3.13;;;3.03;;
17564;SDS011;62994;52.126;5.596;2023-04-01T13:45:29;3.50;;;2.72;;
17564;SDS011;62994;52.126;5.596;2023-04-01T13:48:22;3.00;;;2.90;;
17564;SDS011;62994;52.126;5.596;2023-04-01T13:54:03;2.70;;;2.60;;
17564;SDS011;62994;52.126;5.596;2023-04-01T13:56:53;2.88;;;2.67;;
17564;SDS011;62994;52.126;5.596;2023-04-01T14:02:33;2.60;;;2.50;;
17564;SDS011;62994;52.126;5.596;2023-04-01T14:08:15;2.55;;;2.45;;
17564;SDS011;62994;52.126;5.596;2023-04-01T14:10:59;2.80;;;2.63;;
17564;SDS011;62994;52.126;5.596;2023-04-01T14:13:44;2.85;;;2.72;;
17564;SDS011;62994;52.126;5.596;2023-04-01T14:19:31;2.97;;;2.88;;
17564;SDS011;62994;52.126;5.596;2023-04-01T14:22:22;2.50;;;2.40;;
17564;SDS011;62994;52.126;5.596;2023-04-01T14:25:06;2.95;;;2.85;;
17564;SDS011;62994;52.126;5.596;2023-04-01T14:28:00;3.38;;;3.17;;
17564;SDS011;62994;52.126;5.596;2023-04-01T14:30:37;3.38;;;3.17;;
17564;SDS011;62994;52.126;5.596;2023-04-01T14:33:23;3.30;;;3.15;;
17564;SDS011;62994;52.126;5.596;2023-04-01T14:39:38;4.07;;;3.88;;
17564;SDS011;62994;52.126;5.596;2023-04-01T14:42:30;3.85;;;3.65;;
17564;SDS011;62994;52.126;5.596;2023-04-01T14:48:05;3.78;;;3.58;;
17564;SDS011;62994;52.126;5.596;2023-04-01T14:50:41;3.67;;;3.47;;
17564;SDS011;62994;52.126;5.596;2023-04-01T14:53:13;3.63;;;3.42;;
17564;SDS011;62994;52.126;5.596;2023-04-01T14:55:55;3.80;;;3.60;;
17564;SDS011;62994;52.126;5.596;2023-04-01T14:58:40;3.72;;;3.53;;
17564;SDS011;62994;52.126;5.596;2023-04-01T15:01:12;3.58;;;3.38;;
17564;SDS011;62994;52.126;5.596;2023-04-01T15:03:53;3.45;;;3.30;;
17564;SDS011;62994;52.126;5.596;2023-04-01T15:06:47;3.47;;;3.38;;
17564;SDS011;62994;52.126;5.596;2023-04-01T15:09:23;3.78;;;3.60;;
17564;SDS011;62994;52.126;5.596;2023-04-01T15:12:03;3.90;;;3.60;;
17564;SDS011;62994;52.126;5.596;2023-04-01T15:14:51;5.25;;;3.72;;
17564;SDS011;62994;52.126;5.596;2023-04-01T15:17:39;3.35;;;3.25;;
17564;SDS011;62994;52.126;5.596;2023-04-01T15:20:24;3.15;;;3.00;;
17564;SDS011;62994;52.126;5.596;2023-04-01T15:23:08;3.17;;;3.08;;
17564;SDS011;62994;52.126;5.596;2023-04-01T15:26:19;2.95;;;2.85;;
17564;SDS011;62994;52.126;5.596;2023-04-01T15:28:58;3.63;;;3.50;;
17564;SDS011;62994;52.126;5.596;2023-04-01T15:31:44;3.22;;;3.03;;
17564;SDS011;62994;52.126;5.596;2023-04-01T15:34:24;3.13;;;2.92;;
17564;SDS011;62994;52.126;5.596;2023-04-01T15:37:04;3.00;;;2.85;;
17564;SDS011;62994;52.126;5.596;2023-04-01T15:39:48;3.00;;;2.90;;
17564;SDS011;62994;52.126;5.596;2023-04-01T15:42:28;2.58;;;2.47;;
17564;SDS011;62994;52.126;5.596;2023-04-01T15:45:10;2.97;;;2.88;;
17564;SDS011;62994;52.126;5.596;2023-04-01T15:47:44;2.55;;;2.45;;
17564;SDS011;62994;52.126;5.596;2023-04-01T15:56:28;2.50;;;2.40;;
17564;SDS011;62994;52.126;5.596;2023-04-01T15:59:15;3.00;;;2.90;;
17564;SDS011;62994;52.126;5.596;2023-04-01T16:01:53;2.50;;;2.30;;
17564;SDS011;62994;52.126;5.596;2023-04-01T16:04:30;2.80;;;2.70;;
17564;SDS011;62994;52.126;5.596;2023-04-01T16:07:19;2.40;;;2.30;;
17564;SDS011;62994;52.126;5.596;2023-04-01T16:10:00;2.92;;;2.83;;
17564;SDS011;62994;52.126;5.596;2023-04-01T16:12:44;3.38;;;2.55;;
17564;SDS011;62994;52.126;5.596;2023-04-01T16:15:28;2.90;;;2.80;;
17564;SDS011;62994;52.126;5.596;2023-04-01T16:21:00;3.20;;;3.00;;
17564;SDS011;62994;52.126;5.596;2023-04-01T16:23:36;3.05;;;2.85;;
17564;SDS011;62994;52.126;5.596;2023-04-01T16:26:07;2.85;;;2.65;;
17564;SDS011;62994;52.126;5.596;2023-04-01T16:28:50;3.67;;;3.53;;
17564;SDS011;62994;52.126;5.596;2023-04-01T16:31:33;2.90;;;2.80;;
17564;SDS011;62994;52.126;5.596;2023-04-01T16:34:10;2.72;;;2.63;;
17564;SDS011;62994;52.126;5.596;2023-04-01T16:36:44;3.20;;;3.00;;
17564;SDS011;62994;52.126;5.596;2023-04-01T16:42:11;2.90;;;2.65;;
17564;SDS011;62994;52.126;5.596;2023-04-01T16:44:48;3.00;;;2.90;;
17564;SDS011;62994;52.126;5.596;2023-04-01T16:47:19;3.10;;;2.90;;
17564;SDS011;62994;52.126;5.596;2023-04-01T16:49:58;3.20;;;3.00;;
17564;SDS011;62994;52.126;5.596;2023-04-01T16:52:40;3.38;;;3.28;;
17564;SDS011;62994;52.126;5.596;2023-04-01T16:55:18;2.70;;;2.60;;
17564;SDS011;62994;52.126;5.596;2023-04-01T16:57:49;3.55;;;3.25;;
17564;SDS011;62994;52.126;5.596;2023-04-01T17:00:22;3.80;;;3.47;;
17564;SDS011;62994;52.126;5.596;2023-04-01T17:02:57;5.93;;;4.03;;
17564;SDS011;62994;52.126;5.596;2023-04-01T17:05:44;5.07;;;3.30;;
17564;SDS011;62994;52.126;5.596;2023-04-01T17:08:26;3.55;;;3.35;;
17564;SDS011;62994;52.126;5.596;2023-04-01T17:11:03;3.90;;;3.70;;
17564;SDS011;62994;52.126;5.596;2023-04-01T17:13:45;3.78;;;3.58;;
17564;SDS011;62994;52.126;5.596;2023-04-01T17:19:18;4.25;;;4.05;;
17564;SDS011;62994;52.126;5.596;2023-04-01T17:22:19;3.75;;;3.63;;
17564;SDS011;62994;52.126;5.596;2023-04-01T17:24:58;3.47;;;3.35;;
17564;SDS011;62994;52.126;5.596;2023-04-01T17:27:39;3.60;;;3.50;;
17564;SDS011;62994;52.126;5.596;2023-04-01T17:30:19;3.50;;;3.40;;
17564;SDS011;62994;52.126;5.596;2023-04-01T17:33:00;3.83;;;3.63;;
17564;SDS011;62994;52.126;5.596;2023-04-01T17:35:42;4.50;;;4.15;;
17564;SDS011;62994;52.126;5.596;2023-04-01T17:38:34;3.90;;;3.60;;
17564;SDS011;62994;52.126;5.596;2023-04-01T17:41:14;4.18;;;3.97;;
17564;SDS011;62994;52.126;5.596;2023-04-01T17:43:55;4.18;;;3.97;;
17564;SDS011;62994;52.126;5.596;2023-04-01T17:46:33;4.63;;;4.25;;
17564;SDS011;62994;52.126;5.596;2023-04-01T17:49:23;4.28;;;4.03;;
17564;SDS011;62994;52.126;5.596;2023-04-01T17:51:56;4.40;;;4.10;;
17564;SDS011;62994;52.126;5.596;2023-04-01T17:54:32;4.45;;;4.25;;
17564;SDS011;62994;52.126;5.596;2023-04-01T17:57:20;4.78;;;4.57;;
17564;SDS011;62994;52.126;5.596;2023-04-01T17:59:57;4.38;;;4.18;;
17564;SDS011;62994;52.126;5.596;2023-04-01T18:02:30;4.35;;;4.15;;
17564;SDS011;62994;52.126;5.596;2023-04-01T18:08:12;4.50;;;4.30;;
17564;SDS011;62994;52.126;5.596;2023-04-01T18:10:54;5.30;;;3.97;;
17564;SDS011;62994;52.126;5.596;2023-04-01T18:16:22;4.55;;;4.35;;
17564;SDS011;62994;52.126;5.596;2023-04-01T18:19:07;3.63;;;3.53;;
17564;SDS011;62994;52.126;5.596;2023-04-01T18:21:45;4.07;;;3.88;;
17564;SDS011;62994;52.126;5.596;2023-04-01T18:24:19;4.78;;;4.57;;